createdAt,value
2022-09-18T00:00:59.202Z,79.67
2022-09-18T00:03:27.118Z,79.89
2022-09-18T00:05:53.467Z,79.75
2022-09-18T00:08:19.785Z,79.20
2022-09-18T00:10:46.567Z,79.54
2022-09-18T00:13:13.525Z,79.26
2022-09-18T00:18:57.966Z,78.93
2022-09-18T00:21:25.226Z,78.57
2022-09-18T00:23:55.548Z,78.11
2022-09-18T00:26:22.152Z,77.93
2022-09-18T00:28:49.897Z,77.64
2022-09-18T00:31:20.311Z,77.55
2022-09-18T00:33:48.386Z,77.53
2022-09-18T00:36:19.139Z,77.25
2022-09-18T00:38:47.482Z,76.95
2022-09-18T00:41:17.742Z,76.96
2022-09-18T00:43:45.514Z,77.25
2022-09-18T00:46:25.136Z,76.96
2022-09-18T00:49:04.059Z,76.81
2022-09-18T00:51:35.067Z,77.66
2022-09-18T00:54:09.386Z,77.38
2022-09-18T00:56:38.116Z,77.34
2022-09-18T00:59:05.918Z,77.41
2022-09-18T01:01:33.671Z,77.35
2022-09-18T01:04:01.367Z,77.17
2022-09-18T01:06:37.769Z,77.57
2022-09-18T01:09:27.733Z,76.99
2022-09-18T01:12:06.550Z,76.42
2022-09-18T01:14:41.468Z,75.99
2022-09-18T01:17:16.497Z,76.06
2022-09-18T01:20:19.130Z,76.02
2022-09-18T01:23:12.905Z,75.95
2022-09-18T01:25:54.053Z,75.83
2022-09-18T01:28:30.563Z,75.99
2022-09-18T01:31:06.471Z,76.17
2022-09-18T01:33:41.220Z,76.34
2022-09-18T01:36:12.462Z,76.86
2022-09-18T01:43:43.879Z,78.17
2022-09-18T01:46:15.662Z,78.93
2022-09-18T01:48:47.471Z,78.85
2022-09-18T01:51:19.584Z,79.19
2022-09-18T01:53:49.183Z,79.38
2022-09-18T01:56:19.695Z,79.32
2022-09-18T01:58:49.261Z,79.57
2022-09-18T02:20:40.849Z,79.81
2022-09-18T02:23:08.804Z,80.18
2022-09-18T02:25:41.281Z,80.20
2022-09-18T02:28:11.588Z,79.91
2022-09-18T02:30:39.971Z,79.80
2022-09-18T02:33:26.964Z,79.71
2022-09-18T02:36:09.419Z,79.88
2022-09-18T02:38:44.432Z,79.86
2022-09-18T02:41:22.957Z,79.68
2022-09-18T02:43:55.864Z,79.59
2022-09-18T02:46:33.541Z,79.87
2022-09-18T02:49:09.907Z,79.81
2022-09-18T02:51:46.046Z,79.54
2022-09-18T02:54:19.212Z,79.43
2022-09-18T02:56:51.398Z,79.38
2022-09-18T02:59:23.396Z,79.38
2022-09-18T03:01:52.238Z,79.26
2022-09-18T03:04:22.879Z,79.20
2022-09-18T03:06:51.838Z,79.55
2022-09-18T03:09:19.943Z,79.30
2022-09-18T03:11:47.596Z,79.07
2022-09-18T03:14:15.174Z,79.19
2022-09-18T03:16:42.978Z,79.38
2022-09-18T03:19:11.784Z,79.13
2022-09-18T03:21:39.757Z,79.10
2022-09-18T03:24:08.810Z,78.73
2022-09-18T03:26:36.469Z,78.56
2022-09-18T03:29:08.032Z,78.50
2022-09-18T03:31:35.833Z,78.69
2022-09-18T03:34:03.878Z,78.94
2022-09-18T03:36:31.670Z,78.79
2022-09-18T03:38:59.500Z,78.58
2022-09-18T03:41:28.442Z,78.45
2022-09-18T03:43:56.709Z,78.25
2022-09-18T03:46:24.296Z,78.37
2022-09-18T03:48:52.090Z,78.91
2022-09-18T03:51:20.383Z,79.36
2022-09-18T03:53:49.017Z,79.60
2022-09-18T03:56:16.987Z,79.35
2022-09-18T03:58:46.526Z,79.56
2022-09-18T04:01:14.573Z,79.61
2022-09-18T04:03:42.212Z,79.39
2022-09-18T04:06:09.891Z,79.16
2022-09-18T04:08:38.368Z,78.87
2022-09-18T04:11:06.721Z,78.73
2022-09-18T04:13:35.078Z,78.74
2022-09-18T04:16:04.177Z,79.14
2022-09-18T04:18:31.991Z,79.14
2022-09-18T04:20:59.946Z,79.04
2022-09-18T04:23:27.575Z,79.13
2022-09-18T04:25:55.371Z,78.93
2022-09-18T04:28:25.356Z,78.62
2022-09-18T04:30:52.984Z,78.50
2022-09-18T04:33:22.023Z,78.24
2022-09-18T04:35:49.580Z,78.01
2022-09-18T04:38:17.137Z,78.15
2022-09-18T04:40:44.789Z,78.13
2022-09-18T04:43:12.537Z,78.16
2022-09-18T04:45:41.324Z,78.21
2022-09-18T04:48:09.025Z,78.12
2022-09-18T04:50:37.936Z,78.19
2022-09-18T04:53:05.550Z,78.22
2022-09-18T04:55:33.154Z,78.15
2022-09-18T04:58:00.784Z,78.19
2022-09-18T05:00:28.753Z,78.72
2022-09-18T05:02:56.407Z,78.77
2022-09-18T05:05:24.667Z,78.56
2022-09-18T05:07:53.643Z,78.34
2022-09-18T05:10:21.324Z,78.02
2022-09-18T05:12:49.450Z,77.99
2022-09-18T05:15:18.894Z,78.31
2022-09-18T05:17:46.476Z,77.92
2022-09-18T05:20:14.821Z,77.77
2022-09-18T05:22:46.866Z,77.71
2022-09-18T05:25:16.090Z,77.37
2022-09-18T05:27:43.657Z,77.40
2022-09-18T05:30:11.973Z,77.79
2022-09-18T05:32:39.528Z,77.48
2022-09-18T05:35:07.768Z,77.97
2022-09-18T05:37:35.372Z,77.67
2022-09-18T05:40:03.421Z,77.81
2022-09-18T05:42:32.394Z,77.72
2022-09-18T05:52:22.295Z,77.73
2022-09-18T05:54:48.565Z,77.71
2022-09-18T05:57:14.792Z,77.23
2022-09-18T05:59:41.012Z,77.21
2022-09-18T06:02:09.423Z,77.16
2022-09-18T06:04:35.664Z,77.04
2022-09-18T06:07:01.928Z,78.44
2022-09-18T06:15:49.234Z,77.55
2022-09-18T06:18:15.738Z,76.77
2022-09-18T06:20:44.134Z,76.77
2022-09-18T06:23:12.015Z,76.68
2022-09-18T06:25:39.578Z,76.71
2022-09-18T06:28:07.187Z,76.94
2022-09-18T06:30:36.871Z,76.67
2022-09-18T06:33:07.331Z,77.61
2022-09-18T06:35:36.305Z,77.12
2022-09-18T06:38:04.482Z,76.84
2022-09-18T06:40:33.010Z,76.62
2022-09-18T06:43:02.640Z,76.65
2022-09-18T06:45:32.220Z,76.66
2022-09-18T06:48:02.344Z,77.23
2022-09-18T06:50:31.454Z,77.18
2022-09-18T06:53:02.268Z,77.68
2022-09-18T06:55:30.059Z,78.26
2022-09-18T06:57:58.683Z,78.42
2022-09-18T07:00:27.914Z,78.09
2022-09-18T07:02:56.978Z,78.73
2022-09-18T07:05:25.295Z,78.76
2022-09-18T07:07:54.713Z,79.02
2022-09-18T07:10:22.467Z,78.76
2022-09-18T07:12:50.053Z,78.75
2022-09-18T07:15:18.379Z,79.20
2022-09-18T07:17:46.621Z,79.33
2022-09-18T07:20:15.131Z,79.21
2022-09-18T07:22:47.258Z,79.56
2022-09-18T07:25:16.653Z,79.40
2022-09-18T07:27:44.739Z,79.42
2022-09-18T07:30:13.405Z,79.31
2022-09-18T07:32:41.009Z,78.91
2022-09-18T07:35:09.695Z,79.69
2022-09-18T07:37:37.777Z,79.97
2022-09-18T07:40:06.035Z,79.79
2022-09-18T07:42:35.662Z,79.88
2022-09-18T07:45:03.271Z,80.12
2022-09-18T07:47:30.899Z,80.28
2022-09-18T07:49:58.476Z,80.04
2022-09-18T07:52:26.056Z,80.03
2022-09-18T07:54:53.790Z,80.07
2022-09-18T07:57:21.455Z,80.00
2022-09-18T07:59:50.404Z,80.10
2022-09-18T08:02:20.624Z,80.63
2022-09-18T08:04:48.288Z,80.55
2022-09-18T08:07:15.950Z,80.44
2022-09-18T08:09:43.575Z,80.45
2022-09-18T08:12:11.128Z,80.67
2022-09-18T08:14:38.718Z,80.96
2022-09-18T08:17:07.881Z,80.86
2022-09-18T08:19:35.430Z,81.31
2022-09-18T08:22:03.018Z,80.80
2022-09-18T08:24:30.629Z,81.25
2022-09-18T08:27:03.352Z,81.46
2022-09-18T08:29:31.219Z,80.97
2022-09-18T08:31:59.082Z,80.82
2022-09-18T08:34:28.105Z,80.28
2022-09-18T08:36:56.386Z,80.35
2022-09-18T08:39:24.056Z,80.25
2022-09-18T08:42:03.353Z,80.50
2022-09-18T08:44:34.301Z,80.15
2022-09-18T08:47:06.147Z,79.89
2022-09-18T08:49:40.516Z,79.87
2022-09-18T08:52:15.099Z,79.50
2022-09-18T08:54:50.340Z,79.74
2022-09-18T08:57:23.133Z,79.84
2022-09-18T08:59:54.709Z,79.17
2022-09-18T09:02:38.492Z,78.69
2022-09-18T09:05:12.300Z,78.78
2022-09-18T09:08:04.516Z,79.33
2022-09-18T09:10:42.042Z,78.86
2022-09-18T09:13:25.372Z,78.88
2022-09-18T09:15:57.423Z,78.36
2022-09-18T09:18:32.926Z,78.16
2022-09-18T09:21:13.899Z,77.50
2022-09-18T09:23:55.200Z,77.27
2022-09-18T09:26:24.690Z,76.86
2022-09-18T09:28:56.444Z,76.79
2022-09-18T09:31:27.217Z,76.57
2022-09-18T09:33:59.628Z,76.74
2022-09-18T09:36:31.116Z,76.18
2022-09-18T09:39:06.028Z,76.01
2022-09-18T09:41:39.740Z,76.03
2022-09-18T09:44:24.198Z,75.43
2022-09-18T09:47:01.240Z,75.25
2022-09-18T09:49:31.182Z,75.64
2022-09-18T09:52:09.234Z,74.99
2022-09-18T09:54:37.458Z,75.19
2022-09-18T09:57:19.620Z,74.78
2022-09-18T09:59:53.510Z,74.99
2022-09-18T10:02:37.783Z,74.71
2022-09-18T10:05:16.695Z,74.94
2022-09-18T10:07:50.788Z,75.07
2022-09-18T10:10:28.936Z,74.98
2022-09-18T10:13:01.438Z,74.71
2022-09-18T10:15:36.276Z,74.19
2022-09-18T10:18:08.507Z,74.24
2022-09-18T10:20:37.554Z,73.91
2022-09-18T10:23:16.310Z,73.91
2022-09-18T10:25:50.799Z,74.26
2022-09-18T10:28:18.557Z,74.01
2022-09-18T10:30:55.124Z,73.46
2022-09-18T10:33:34.626Z,73.83
2022-09-18T10:36:09.911Z,73.22
2022-09-18T10:38:39.961Z,73.29
2022-09-18T10:41:25.784Z,72.85
2022-09-18T10:44:00.337Z,72.74
2022-09-18T10:46:30.550Z,72.66
2022-09-18T10:49:00.977Z,72.92
2022-09-18T10:51:29.331Z,72.42
2022-09-18T10:54:17.196Z,72.00
2022-09-18T10:56:45.146Z,72.14
2022-09-18T10:59:33.807Z,72.17
2022-09-18T11:02:03.709Z,72.44
2022-09-18T11:04:32.783Z,71.90
2022-09-18T11:07:03.229Z,72.88
2022-09-18T11:09:37.129Z,72.98
2022-09-18T11:12:05.175Z,73.08
2022-09-18T11:14:39.643Z,73.19
2022-09-18T11:17:15.602Z,73.30
2022-09-18T11:19:43.270Z,73.82
2022-09-18T11:22:35.201Z,73.93
2022-09-18T11:25:18.481Z,74.62
2022-09-18T11:27:48.624Z,74.23
2022-09-18T11:30:21.576Z,74.09
2022-09-18T11:32:52.511Z,74.36
2022-09-18T11:35:22.685Z,74.53
2022-09-18T11:37:54.064Z,74.56
2022-09-18T11:40:26.982Z,73.99
2022-09-18T11:42:55.969Z,74.15
2022-09-18T11:45:45.955Z,73.88
2022-09-18T11:48:24.925Z,73.49
2022-09-18T11:50:56.815Z,72.54
2022-09-18T11:53:28.206Z,72.75
2022-09-18T11:56:02.705Z,72.98
2022-09-18T11:58:35.832Z,72.62
2022-09-18T12:01:14.252Z,72.16
2022-09-18T12:03:47.477Z,72.28
2022-09-18T12:06:22.624Z,72.50
2022-09-18T12:08:55.981Z,71.99
2022-09-18T12:11:34.253Z,72.28
2022-09-18T12:14:13.002Z,72.84
2022-09-18T12:16:50.246Z,74.51
2022-09-18T12:19:23.248Z,75.29
2022-09-18T12:21:57.275Z,76.41
2022-09-18T12:24:25.063Z,76.60
2022-09-18T12:27:04.388Z,77.01
2022-09-18T12:29:49.108Z,76.97
2022-09-18T12:32:28.614Z,77.04
2022-09-18T12:35:07.052Z,76.97
2022-09-18T12:37:47.809Z,76.87
2022-09-18T12:40:55.649Z,76.57
2022-09-18T12:43:40.525Z,76.63
2022-09-18T12:46:21.409Z,76.26
2022-09-18T12:49:07.534Z,75.77
2022-09-18T12:51:41.106Z,75.21
2022-09-18T12:54:33.299Z,75.18
2022-09-18T12:57:15.925Z,75.72
2022-09-18T12:59:58.554Z,75.54
2022-09-18T13:02:38.984Z,75.97
2022-09-18T13:05:14.879Z,74.65
2022-09-18T13:07:46.297Z,74.68
2022-09-18T13:10:20.591Z,75.24
2022-09-18T13:12:54.839Z,75.52
2022-09-18T13:15:27.446Z,75.11
2022-09-18T13:18:02.532Z,75.42
2022-09-18T13:20:35.191Z,75.13
2022-09-18T13:23:03.672Z,74.63
2022-09-18T13:25:36.165Z,73.86
2022-09-18T13:28:08.506Z,72.76
2022-09-18T13:30:39.547Z,72.33
2022-09-18T13:33:07.395Z,71.76
2022-09-18T13:35:39.490Z,71.26
2022-09-18T13:38:20.350Z,70.64
2022-09-18T13:40:50.425Z,70.28
2022-09-18T13:43:25.621Z,70.43
2022-09-18T13:45:56.371Z,70.50
2022-09-18T13:48:29.670Z,70.99
2022-09-18T13:51:01.389Z,70.86
2022-09-18T13:53:39.383Z,70.84
2022-09-18T13:56:08.431Z,70.66
2022-09-18T13:58:52.583Z,70.50
2022-09-18T14:02:00.026Z,70.29
2022-09-18T14:05:04.413Z,69.13
2022-09-18T14:08:04.431Z,69.29
2022-09-18T14:11:14.175Z,68.41
2022-09-18T14:13:47.509Z,68.30
2022-09-18T14:16:29.681Z,68.76
2022-09-18T14:19:03.194Z,68.21
2022-09-18T14:21:33.158Z,67.35
2022-09-18T14:24:25.309Z,67.11
2022-09-18T14:27:23.935Z,67.34
2022-09-18T14:29:59.215Z,66.40
2022-09-18T14:32:28.431Z,66.74
2022-09-18T14:35:22.797Z,66.49
2022-09-18T14:37:50.638Z,66.53
2022-09-18T14:40:22.547Z,66.49
2022-09-18T14:42:50.831Z,66.99
2022-09-18T14:45:28.417Z,67.05
2022-09-18T14:47:57.049Z,66.88
2022-09-18T14:50:34.803Z,66.61
2022-09-18T14:53:04.260Z,66.71
2022-09-18T14:55:37.251Z,65.63
2022-09-18T14:58:08.339Z,65.84
2022-09-18T15:00:38.643Z,65.01
2022-09-18T15:03:09.681Z,65.22
2022-09-18T15:05:37.835Z,64.74
2022-09-18T15:08:09.060Z,63.94
2022-09-18T15:10:40.983Z,63.25
2022-09-18T15:13:13.667Z,63.09
2022-09-18T15:15:43.255Z,63.33
2022-09-18T15:18:23.590Z,62.69
2022-09-18T15:20:52.521Z,62.92
2022-09-18T15:23:21.494Z,62.85
2022-09-18T15:25:54.484Z,63.32
2022-09-18T15:28:25.963Z,63.25
2022-09-18T15:30:58.188Z,63.26
2022-09-18T15:33:27.436Z,64.32
2022-09-18T15:35:56.459Z,63.65
2022-09-18T15:38:26.901Z,62.89
2022-09-18T15:40:56.179Z,63.28
2022-09-18T15:43:43.594Z,63.40
2022-09-18T15:46:13.382Z,63.90
2022-09-18T15:48:45.198Z,62.91
2022-09-18T15:51:16.918Z,62.86
2022-09-18T15:54:07.636Z,62.81
2022-09-18T15:56:39.547Z,64.37
2022-09-18T15:59:18.198Z,62.66
2022-09-18T16:01:48.467Z,63.06
2022-09-18T16:04:20.248Z,63.21
2022-09-18T16:07:01.472Z,63.71
2022-09-18T16:09:40.161Z,63.78
2022-09-18T16:13:06.238Z,64.06
2022-09-18T16:15:35.665Z,64.88
2022-09-18T16:18:06.408Z,65.01
2022-09-18T16:20:38.470Z,64.86
2022-09-18T16:23:15.128Z,64.38
2022-09-18T16:25:43.665Z,64.39
2022-09-18T16:28:25.242Z,64.49
2022-09-18T16:30:55.494Z,64.87
2022-09-18T16:33:26.940Z,64.81
2022-09-18T16:35:57.234Z,64.71
2022-09-18T16:38:24.874Z,64.68
2022-09-18T16:40:52.524Z,64.75
2022-09-18T16:43:20.138Z,64.99
2022-09-18T16:45:48.428Z,65.10
2022-09-18T16:48:18.151Z,65.07
2022-09-18T16:50:47.476Z,65.08
2022-09-18T16:53:15.523Z,65.63
2022-09-18T16:55:47.094Z,65.61
2022-09-18T16:58:16.359Z,65.74
2022-09-18T17:00:44.022Z,66.07
2022-09-18T17:03:12.699Z,65.72
2022-09-18T17:05:41.678Z,66.03
2022-09-18T17:08:09.267Z,66.16
2022-09-18T17:10:37.161Z,66.02
2022-09-18T17:13:05.220Z,65.84
2022-09-18T17:15:32.830Z,65.99
2022-09-18T17:18:00.425Z,65.86
2022-09-18T17:20:28.080Z,66.28
2022-09-18T17:22:57.090Z,66.39
2022-09-18T17:25:24.634Z,66.27
2022-09-18T17:27:52.741Z,66.44
2022-09-18T17:30:21.238Z,66.63
2022-09-18T17:32:49.134Z,66.80
2022-09-18T17:35:16.976Z,66.67
2022-09-18T17:37:44.762Z,66.87
2022-09-18T17:40:13.786Z,66.69
2022-09-18T17:42:41.515Z,66.60
2022-09-18T17:45:10.083Z,66.50
2022-09-18T17:47:37.736Z,66.31
2022-09-18T17:50:06.503Z,66.72
2022-09-18T17:52:35.615Z,67.00
2022-09-18T17:55:03.463Z,66.75
2022-09-18T17:57:32.822Z,66.89
2022-09-18T18:00:00.400Z,66.61
2022-09-18T18:02:28.092Z,66.52
2022-09-18T18:04:55.724Z,66.69
2022-09-18T18:07:23.542Z,66.76
2022-09-18T18:09:51.157Z,66.42
2022-09-18T18:12:18.755Z,66.67
2022-09-18T18:14:47.843Z,66.65
2022-09-18T18:17:15.497Z,66.68
2022-09-18T18:19:43.090Z,66.57
2022-09-18T18:22:10.694Z,66.59
2022-09-18T18:24:38.679Z,66.03
2022-09-18T18:27:06.405Z,65.93
2022-09-18T18:29:34.434Z,66.40
2022-09-18T18:32:03.803Z,66.34
2022-09-18T18:34:32.727Z,66.09
2022-09-18T18:37:00.618Z,66.09
2022-09-18T18:39:28.338Z,66.00
2022-09-18T18:41:55.882Z,65.62
2022-09-18T18:44:23.518Z,65.67
2022-09-18T18:46:51.253Z,64.94
2022-09-18T18:49:20.374Z,65.39
2022-09-18T18:51:50.061Z,65.06
2022-09-18T18:54:20.356Z,64.71
2022-09-18T18:56:48.880Z,64.63
2022-09-18T18:59:18.325Z,64.69
2022-09-18T19:01:47.290Z,64.81
2022-09-18T19:04:18.905Z,64.43
2022-09-18T19:06:48.652Z,64.24
2022-09-18T19:09:20.481Z,64.03
2022-09-18T19:11:49.836Z,64.07
2022-09-18T19:14:18.795Z,63.54
2022-09-18T19:16:47.352Z,63.90
2022-09-18T19:19:16.551Z,63.65
2022-09-18T19:21:44.515Z,63.71
2022-09-18T19:24:14.118Z,63.53
2022-09-18T19:26:43.226Z,63.19
2022-09-18T19:29:13.391Z,63.43
2022-09-18T19:31:42.788Z,63.19
2022-09-18T19:34:12.164Z,63.22
2022-09-18T19:36:39.828Z,63.26
2022-09-18T19:39:11.354Z,63.43
2022-09-18T19:41:44.343Z,63.51
2022-09-18T19:44:17.765Z,63.83
2022-09-18T19:46:48.080Z,63.90
2022-09-18T19:49:18.785Z,64.31
2022-09-18T19:51:46.861Z,64.06
2022-09-18T19:54:14.712Z,63.66
2022-09-18T19:56:48.147Z,63.34
2022-09-18T19:59:16.219Z,63.55
2022-09-18T20:01:44.989Z,63.17
2022-09-18T20:04:12.751Z,63.29
2022-09-18T20:06:42.342Z,63.42
2022-09-18T20:09:10.719Z,63.27
2022-09-18T20:11:38.453Z,63.08
2022-09-18T20:14:07.499Z,62.93
2022-09-18T20:16:35.229Z,62.84
2022-09-18T20:19:02.943Z,62.83
2022-09-18T20:21:30.741Z,62.55
2022-09-18T20:23:59.319Z,62.69
2022-09-18T20:26:28.765Z,62.51
2022-09-18T20:28:56.508Z,62.60
2022-09-18T20:31:25.716Z,62.34
2022-09-18T20:33:57.378Z,62.34
2022-09-18T20:36:26.005Z,62.53
2022-09-18T20:38:57.813Z,62.78
2022-09-18T20:41:28.267Z,62.29
2022-09-18T20:43:56.611Z,62.84
2022-09-18T20:46:27.513Z,63.02
2022-09-18T20:48:55.972Z,63.16
2022-09-18T20:51:26.523Z,63.12
2022-09-18T20:53:57.224Z,62.67
2022-09-18T20:56:26.402Z,62.78
2022-09-18T21:10:48.895Z,62.46
2022-09-18T21:13:17.726Z,62.40
2022-09-18T21:15:48.634Z,62.13
2022-09-18T21:18:16.771Z,62.22
2022-09-18T21:20:44.676Z,62.26
2022-09-18T21:23:40.433Z,62.20
2022-09-18T21:29:01.525Z,62.24
2022-09-18T21:31:29.940Z,61.91
2022-09-18T21:34:00.167Z,62.49
2022-09-18T21:36:28.592Z,63.44
2022-09-18T21:38:57.482Z,63.42
2022-09-18T21:41:26.282Z,63.10
2022-09-18T21:43:57.432Z,64.07
2022-09-18T21:46:25.353Z,64.30
2022-09-18T21:48:56.665Z,65.04
2022-09-18T21:51:24.366Z,65.92
2022-09-18T21:53:52.211Z,66.76
2022-09-18T21:56:21.777Z,66.79
2022-09-18T21:58:50.263Z,67.00
2022-09-18T22:01:19.715Z,66.73
2022-09-18T22:03:53.305Z,67.09
2022-09-18T22:06:23.275Z,66.77
2022-09-18T22:08:54.468Z,67.31
2022-09-18T22:11:26.261Z,67.40
2022-09-18T22:13:54.628Z,67.86
2022-09-18T22:16:23.395Z,68.17
2022-09-18T22:18:51.101Z,69.59
2022-09-18T22:21:20.631Z,70.39
2022-09-18T22:23:52.829Z,70.90
2022-09-18T22:26:22.029Z,70.95
2022-09-18T22:28:53.463Z,72.01
2022-09-18T22:31:21.911Z,72.49
2022-09-18T22:33:53.505Z,73.02
2022-09-18T22:36:21.610Z,73.57
2022-09-18T22:38:49.314Z,73.98
2022-09-18T22:41:17.056Z,74.36
2022-09-18T22:43:45.639Z,74.75
2022-09-18T22:46:16.861Z,74.97
2022-09-18T22:48:45.066Z,75.59
2022-09-18T22:51:15.023Z,75.62
2022-09-18T22:53:48.180Z,75.68
2022-09-18T22:56:17.090Z,76.67
2022-09-18T22:58:45.199Z,76.53
2022-09-18T23:01:18.187Z,77.00
2022-09-18T23:03:47.119Z,76.77
2022-09-18T23:06:15.563Z,77.37
2022-09-18T23:08:43.893Z,77.19
2022-09-18T23:11:13.775Z,77.69
2022-09-18T23:13:42.931Z,78.22
2022-09-18T23:16:12.998Z,77.90
2022-09-18T23:18:43.456Z,77.92
2022-09-18T23:21:13.749Z,77.71
2022-09-18T23:23:43.563Z,77.96
2022-09-18T23:26:12.624Z,78.26
2022-09-18T23:28:45.941Z,78.17
2022-09-18T23:31:15.474Z,78.15
2022-09-18T23:33:48.482Z,78.16
2022-09-18T23:36:18.280Z,77.76
2022-09-18T23:38:46.478Z,78.00
2022-09-18T23:41:17.268Z,78.46
2022-09-18T23:43:47.119Z,78.68
2022-09-18T23:46:15.401Z,78.81
2022-09-18T23:48:45.288Z,78.80
2022-09-18T23:51:13.276Z,79.27
2022-09-18T23:53:42.539Z,79.34
2022-09-18T23:56:13.158Z,79.39
2022-09-18T23:58:41.808Z,79.40
